Time;durP1;ratioP1;P1;durP2;ratioP2;P2;SDS_P1;SDS_P2;PMS_P1;PMS_P2;Temp;Humidity;BMP_temperature;BMP_pressure;BME280_temperature;BME280_humidity;BME280_pressure;Samples;Min_cycle;Max_cycle;Signal;HPM_P1;HPM_P2
2023/09/19 00:01:33;;;;;;;0.00;0.00;;;;;;;;;;5000163;28;20049;-84
2023/09/19 00:03:59;;;;;;;0.00;0.00;;;;;;;;;;5016333;28;20044;-84
2023/09/19 00:06:25;;;;;;;0.00;0.00;;;;;;;;;;4999874;28;20075;-83
2023/09/19 00:08:51;;;;;;;0.00;0.00;;;;;;;;;;5016273;28;20084;-84
2023/09/19 00:11:17;;;;;;;0.00;0.00;;;;;;;;;;5016064;28;20023;-84
2023/09/19 00:13:43;;;;;;;0.00;0.00;;;;;;;;;;5033889;28;20022;-84
2023/09/19 00:16:10;;;;;;;0.00;0.00;;;;;;;;;;5016203;28;20435;-84
2023/09/19 00:18:36;;;;;;;0.00;0.00;;;;;;;;;;4999880;28;20115;-82
2023/09/19 00:21:04;;;;;;;0.00;0.00;;;;;;;;;;5015760;28;20132;-82
2023/09/19 00:23:31;;;;;;;0.00;0.00;;;;;;;;;;5016329;28;20344;-83
2023/09/19 00:26:00;;;;;;;0.00;0.00;;;;;;;;;;5033996;28;20439;-83
2023/09/19 00:28:26;;;;;;;0.00;0.00;;;;;;;;;;4999368;28;20060;-83
2023/09/19 00:30:51;;;;;;;0.00;0.00;;;;;;;;;;4998831;28;20465;-83
2023/09/19 00:33:19;;;;;;;0.00;0.00;;;;;;;;;;4999163;28;20053;-83
2023/09/19 00:35:54;;;;;;;0.00;0.00;;;;;;;;;;5016097;28;20391;-83
2023/09/19 00:38:26;;;;;;;0.00;0.00;;;;;;;;;;4999502;28;20074;-83
2023/09/19 00:40:52;;;;;;;0.00;0.00;;;;;;;;;;5000760;28;20034;-83
2023/09/19 00:43:18;;;;;;;0.00;0.00;;;;;;;;;;5033846;28;20037;-83
2023/09/19 00:45:45;;;;;;;0.00;0.00;;;;;;;;;;4999949;28;20353;-83
2023/09/19 00:48:11;;;;;;;0.00;0.00;;;;;;;;;;5015929;28;20038;-83
2023/09/19 00:50:37;;;;;;;0.00;0.00;;;;;;;;;;4999513;28;20126;-83
2023/09/19 00:53:09;;;;;;;0.00;0.00;;;;;;;;;;4999414;28;20064;-83
2023/09/19 00:55:37;;;;;;;0.00;0.00;;;;;;;;;;5016659;28;20029;-84
2023/09/19 00:58:03;;;;;;;0.00;0.00;;;;;;;;;;4999978;28;20453;-84
2023/09/19 01:00:29;;;;;;;0.00;0.00;;;;;;;;;;4999336;28;20037;-83
2023/09/19 01:02:54;;;;;;;0.00;0.00;;;;;;;;;;5015527;28;20049;-82
2023/09/19 01:05:20;;;;;;;0.00;0.00;;;;;;;;;;5016185;28;20029;-83
2023/09/19 01:07:48;;;;;;;0.00;0.00;;;;;;;;;;4999114;28;20030;-83
2023/09/19 01:10:15;;;;;;;0.00;0.00;;;;;;;;;;5016157;28;20030;-84
2023/09/19 01:13:02;;;;;;;0.00;0.00;;;;;;;;;;4983456;28;20037;-84
2023/09/19 01:15:42;;;;;;;0.00;0.00;;;;;;;;;;5032374;28;20554;-84
2023/09/19 01:18:33;;;;;;;0.00;0.00;;;;;;;;;;5033251;28;20033;-83
2023/09/19 01:21:28;;;;;;;0.00;0.00;;;;;;;;;;5017327;28;20127;-83
2023/09/19 01:24:15;;;;;;;0.00;0.00;;;;;;;;;;5018528;28;20033;-82
2023/09/19 01:26:50;;;;;;;0.00;0.00;;;;;;;;;;5016715;28;20140;-83
2023/09/19 01:29:34;;;;;;;0.00;0.00;;;;;;;;;;5032912;28;20466;-83
2023/09/19 01:32:02;;;;;;;0.00;0.00;;;;;;;;;;5013614;28;20069;-83
2023/09/19 01:34:47;;;;;;;0.00;0.00;;;;;;;;;;5015464;28;20041;-83
2023/09/19 01:37:14;;;;;;;0.00;0.00;;;;;;;;;;4983386;28;20378;-83
2023/09/19 01:39:40;;;;;;;0.00;0.00;;;;;;;;;;5017061;28;20056;-83
2023/09/19 01:42:19;;;;;;;0.00;0.00;;;;;;;;;;5003070;28;20036;-83
2023/09/19 01:44:47;;;;;;;0.00;0.00;;;;;;;;;;4989727;28;20029;-83
2023/09/19 01:47:37;;;;;;;0.00;0.00;;;;;;;;;;5036532;28;20025;-83
2023/09/19 01:50:18;;;;;;;0.00;0.00;;;;;;;;;;5003106;28;20083;-83
2023/09/19 01:52:55;;;;;;;0.00;0.00;;;;;;;;;;5007836;28;20384;-82
2023/09/19 01:55:20;;;;;;;0.00;0.00;;;;;;;;;;4991974;28;20116;-83
2023/09/19 01:57:59;;;;;;;0.00;0.00;;;;;;;;;;5024938;28;20480;-83
2023/09/19 02:00:27;;;;;;;0.28;0.00;;;;;;;;;;5005178;28;20041;-83
2023/09/19 02:02:53;;;;;;;0.00;0.00;;;;;;;;;;5005659;28;20064;-81
2023/09/19 02:05:27;;;;;;;0.00;0.00;;;;;;;;;;5002954;28;20033;-83
2023/09/19 02:07:53;;;;;;;0.00;0.00;;;;;;;;;;5002880;28;20447;-83
2023/09/19 02:10:20;;;;;;;0.00;0.00;;;;;;;;;;4986186;28;20029;-83
2023/09/19 02:12:46;;;;;;;0.00;0.00;;;;;;;;;;5018423;28;20347;-84
2023/09/19 02:15:11;;;;;;;0.00;0.00;;;;;;;;;;5002448;28;20540;-84
2023/09/19 02:17:37;;;;;;;0.00;0.00;;;;;;;;;;4985934;28;20120;-84
2023/09/19 02:20:09;;;;;;;0.00;0.00;;;;;;;;;;5018296;28;20033;-84
2023/09/19 02:22:35;;;;;;;0.00;0.00;;;;;;;;;;5017811;28;20033;-84
2023/09/19 02:25:01;;;;;;;0.00;0.00;;;;;;;;;;5018287;28;20025;-84
2023/09/19 02:27:27;;;;;;;0.00;0.00;;;;;;;;;;5034569;28;20048;-84
2023/09/19 02:29:52;;;;;;;0.00;0.00;;;;;;;;;;5002038;28;20025;-84
2023/09/19 02:32:18;;;;;;;0.00;0.00;;;;;;;;;;5018657;28;20055;-85
2023/09/19 02:34:44;;;;;;;0.00;0.00;;;;;;;;;;5016612;28;20025;-84
2023/09/19 02:37:10;;;;;;;0.00;0.00;;;;;;;;;;5002373;28;20354;-84
2023/09/19 02:39:35;;;;;;;0.00;0.00;;;;;;;;;;5018323;28;20037;-83
2023/09/19 02:42:01;;;;;;;0.00;0.00;;;;;;;;;;5035989;28;20029;-83
2023/09/19 02:44:27;;;;;;;0.00;0.00;;;;;;;;;;5033951;28;20040;-85
2023/09/19 02:46:53;;;;;;;0.00;0.00;;;;;;;;;;5017732;28;20026;-83
2023/09/19 02:49:18;;;;;;;0.00;0.00;;;;;;;;;;5017502;28;20026;-84
2023/09/19 02:51:44;;;;;;;0.00;0.00;;;;;;;;;;5001067;28;20112;-85
2023/09/19 02:54:10;;;;;;;0.00;0.00;;;;;;;;;;5017378;28;20021;-84
2023/09/19 02:56:36;;;;;;;0.00;0.00;;;;;;;;;;5017460;28;20087;-84
2023/09/19 02:59:02;;;;;;;0.00;0.00;;;;;;;;;;5034744;28;20029;-84
2023/09/19 03:01:28;;;;;;;0.00;0.00;;;;;;;;;;5001053;28;20513;-84
2023/09/19 03:03:54;;;;;;;0.00;0.00;;;;;;;;;;5001461;28;20029;-83
2023/09/19 03:06:20;;;;;;;0.00;0.00;;;;;;;;;;5018004;28;20048;-84
2023/09/19 03:08:46;;;;;;;0.28;0.00;;;;;;;;;;5017380;28;20447;-84
2023/09/19 03:11:14;;;;;;;0.00;0.00;;;;;;;;;;5001218;28;20374;-83
2023/09/19 03:13:39;;;;;;;0.00;0.00;;;;;;;;;;5034858;28;20183;-84
2023/09/19 03:16:05;;;;;;;0.00;0.00;;;;;;;;;;5017525;28;20116;-84
2023/09/19 03:18:32;;;;;;;0.00;0.00;;;;;;;;;;5017149;28;20036;-84
2023/09/19 03:20:59;;;;;;;0.00;0.00;;;;;;;;;;5017286;28;20036;-84
2023/09/19 03:23:26;;;;;;;0.00;0.00;;;;;;;;;;5034766;28;20087;-84
2023/09/19 03:25:59;;;;;;;0.00;0.00;;;;;;;;;;5035016;28;20615;-84
2023/09/19 03:28:33;;;;;;;0.00;0.00;;;;;;;;;;5018667;28;20035;-84
2023/09/19 03:31:03;;;;;;;0.00;0.00;;;;;;;;;;5001146;28;20030;-84
2023/09/19 03:33:31;;;;;;;0.00;0.00;;;;;;;;;;5000928;28;20026;-84
2023/09/19 03:35:58;;;;;;;0.65;0.00;;;;;;;;;;4999985;28;20025;-84
2023/09/19 03:38:23;;;;;;;0.00;0.00;;;;;;;;;;5000909;28;20022;-84
2023/09/19 03:40:52;;;;;;;0.00;0.00;;;;;;;;;;5017539;28;20095;-84
2023/09/19 03:43:19;;;;;;;0.00;0.00;;;;;;;;;;5000456;28;20025;-82
2023/09/19 03:45:44;;;;;;;0.10;0.00;;;;;;;;;;5017105;28;20029;-84
2023/09/19 03:48:10;;;;;;;0.00;0.00;;;;;;;;;;5016300;28;20040;-84
2023/09/19 03:50:36;;;;;;;0.00;0.00;;;;;;;;;;5034043;28;20508;-84
2023/09/19 03:53:02;;;;;;;0.00;0.00;;;;;;;;;;5000207;28;20056;-84
2023/09/19 03:55:38;;;;;;;0.00;0.00;;;;;;;;;;5036743;28;20090;-84
2023/09/19 03:58:04;;;;;;;0.00;0.00;;;;;;;;;;4989696;28;20084;-83
2023/09/19 04:00:29;;;;;;;0.00;0.00;;;;;;;;;;5015189;28;20451;-83
2023/09/19 04:02:56;;;;;;;0.00;0.00;;;;;;;;;;5031077;28;20049;-83
2023/09/19 04:05:22;;;;;;;0.00;0.00;;;;;;;;;;5016862;28;20370;-84
2023/09/19 04:07:48;;;;;;;0.00;0.00;;;;;;;;;;5016624;28;20084;-84
2023/09/19 04:10:14;;;;;;;0.00;0.00;;;;;;;;;;5016753;28;20462;-83
2023/09/19 04:12:40;;;;;;;0.00;0.00;;;;;;;;;;5034114;28;20032;-83
2023/09/19 04:15:06;;;;;;;0.00;0.00;;;;;;;;;;5012621;28;20427;-84
2023/09/19 04:17:34;;;;;;;0.00;0.00;;;;;;;;;;5033684;28;20029;-83
2023/09/19 04:20:00;;;;;;;0.00;0.00;;;;;;;;;;5015714;28;20072;-83
2023/09/19 04:22:25;;;;;;;0.00;0.00;;;;;;;;;;5032432;28;20419;-81
2023/09/19 04:24:51;;;;;;;0.00;0.00;;;;;;;;;;5033225;28;20409;-83
2023/09/19 04:27:16;;;;;;;0.00;0.00;;;;;;;;;;5015095;28;20021;-80
2023/09/19 04:29:42;;;;;;;0.00;0.00;;;;;;;;;;5033431;28;20029;-78
2023/09/19 04:32:09;;;;;;;0.00;0.00;;;;;;;;;;5014542;28;20378;-80
2023/09/19 04:34:35;;;;;;;0.00;0.00;;;;;;;;;;5033583;28;20120;-79
2023/09/19 04:37:00;;;;;;;0.00;0.00;;;;;;;;;;5015840;28;20060;-80
2023/09/19 04:39:27;;;;;;;0.00;0.00;;;;;;;;;;4994140;28;20084;-81
2023/09/19 04:41:52;;;;;;;0.00;0.00;;;;;;;;;;5013037;28;20156;-78
2023/09/19 04:44:19;;;;;;;0.00;0.00;;;;;;;;;;5029771;28;20021;-81
2023/09/19 04:46:46;;;;;;;0.00;0.00;;;;;;;;;;4998168;28;20032;-80
2023/09/19 04:49:12;;;;;;;0.00;0.00;;;;;;;;;;5033302;28;20037;-80
2023/09/19 04:51:38;;;;;;;0.00;0.00;;;;;;;;;;5013588;28;20025;-81
2023/09/19 04:54:03;;;;;;;0.00;0.00;;;;;;;;;;5031039;28;20082;-79
2023/09/19 04:56:29;;;;;;;0.00;0.00;;;;;;;;;;5027554;28;20021;-79
2023/09/19 04:59:05;;;;;;;0.00;0.00;;;;;;;;;;5013937;28;20037;-81
2023/09/19 05:01:31;;;;;;;0.00;0.00;;;;;;;;;;5026285;28;20060;-80
2023/09/19 05:03:57;;;;;;;0.00;0.00;;;;;;;;;;5006438;28;20093;-81
2023/09/19 05:06:34;;;;;;;0.00;0.00;;;;;;;;;;5015889;28;20093;-80
2023/09/19 05:09:05;;;;;;;0.00;0.00;;;;;;;;;;5013212;28;20103;-79
2023/09/19 05:11:31;;;;;;;0.00;0.00;;;;;;;;;;5011687;28;20064;-78
2023/09/19 05:13:56;;;;;;;0.00;0.00;;;;;;;;;;4995466;28;20084;-80
2023/09/19 05:16:22;;;;;;;0.00;0.00;;;;;;;;;;5016729;28;20026;-78
2023/09/19 05:18:49;;;;;;;0.00;0.00;;;;;;;;;;5012054;28;20033;-78
2023/09/19 05:21:15;;;;;;;0.00;0.00;;;;;;;;;;5016196;28;20395;-80
2023/09/19 05:23:40;;;;;;;0.00;0.00;;;;;;;;;;4996025;28;20042;-78
2023/09/19 05:26:07;;;;;;;0.00;0.00;;;;;;;;;;5015320;28;20376;-79
2023/09/19 05:28:34;;;;;;;0.00;0.00;;;;;;;;;;5015187;28;20041;-78
2023/09/19 05:31:04;;;;;;;0.00;0.00;;;;;;;;;;5015384;28;20042;-81
2023/09/19 05:33:33;;;;;;;0.00;0.00;;;;;;;;;;4995411;28;20034;-80
2023/09/19 05:35:59;;;;;;;0.00;0.00;;;;;;;;;;5016070;28;20065;-81
2023/09/19 05:38:26;;;;;;;0.00;0.00;;;;;;;;;;5015908;28;20344;-79
2023/09/19 05:40:51;;;;;;;0.00;0.00;;;;;;;;;;5012475;28;20042;-80
2023/09/19 05:43:18;;;;;;;0.00;0.00;;;;;;;;;;5015056;28;20117;-79
2023/09/19 05:45:47;;;;;;;0.00;0.00;;;;;;;;;;5025192;28;20364;-81
2023/09/19 05:48:14;;;;;;;0.00;0.00;;;;;;;;;;5011559;28;20045;-79
2023/09/19 05:50:40;;;;;;;0.00;0.00;;;;;;;;;;4996981;28;20034;-82
2023/09/19 05:53:05;;;;;;;0.00;0.00;;;;;;;;;;4991334;28;20104;-81
2023/09/19 05:55:32;;;;;;;0.00;0.00;;;;;;;;;;5011038;28;20033;-81
2023/09/19 05:57:57;;;;;;;0.00;0.00;;;;;;;;;;5006397;28;20038;-79
2023/09/19 06:00:23;;;;;;;0.00;0.00;;;;;;;;;;4989827;28;20425;-80
2023/09/19 06:02:52;;;;;;;0.00;0.00;;;;;;;;;;5030313;28;20048;-79
2023/09/19 06:05:21;;;;;;;0.00;0.00;;;;;;;;;;5008798;28;20030;-77
2023/09/19 06:07:47;;;;;;;0.00;0.00;;;;;;;;;;5015224;28;20082;-77
2023/09/19 06:10:13;;;;;;;0.00;0.00;;;;;;;;;;4997287;28;20069;-79
2023/09/19 06:12:44;;;;;;;0.00;0.00;;;;;;;;;;5030988;28;21477;-81
2023/09/19 06:15:18;;;;;;;0.00;0.00;;;;;;;;;;5011622;28;20025;-84
2023/09/19 06:17:55;;;;;;;0.00;0.00;;;;;;;;;;4995470;28;20041;-77
2023/09/19 06:20:22;;;;;;;0.00;0.00;;;;;;;;;;4996616;28;20030;-77
2023/09/19 06:22:51;;;;;;;0.20;0.00;;;;;;;;;;5016777;28;20060;-82
2023/09/19 06:25:27;;;;;;;0.00;0.00;;;;;;;;;;5012346;28;20097;-85
2023/09/19 06:27:54;;;;;;;0.00;0.00;;;;;;;;;;5007522;28;20037;-79
2023/09/19 06:30:20;;;;;;;0.00;0.00;;;;;;;;;;5012093;28;20374;-78
2023/09/19 06:32:46;;;;;;;0.00;0.00;;;;;;;;;;5013827;28;20034;-81
2023/09/19 06:38:51;;;;;;;0.00;0.00;;;;;;;;;;5110207;23;20055;-82
2023/09/19 06:41:27;;;;;;;0.00;0.00;;;;;;;;;;5039389;28;20051;-80
2023/09/19 06:43:53;;;;;;;0.00;0.00;;;;;;;;;;5043155;28;20025;-80
2023/09/19 06:46:19;;;;;;;0.00;0.00;;;;;;;;;;5053907;28;20032;-80
2023/09/19 06:48:52;;;;;;;0.00;0.00;;;;;;;;;;5053013;28;20025;-79
2023/09/19 06:51:18;;;;;;;0.00;0.00;;;;;;;;;;5044487;28;20051;-81
2023/09/19 06:53:44;;;;;;;0.00;0.00;;;;;;;;;;5016447;28;20669;-81
2023/09/19 06:56:10;;;;;;;0.00;0.00;;;;;;;;;;5023451;28;20029;-78
2023/09/19 06:58:38;;;;;;;0.00;0.00;;;;;;;;;;5028070;28;20510;-78
2023/09/19 07:01:04;;;;;;;0.00;0.00;;;;;;;;;;5052098;28;20042;-81
2023/09/19 07:03:29;;;;;;;0.00;0.00;;;;;;;;;;5036203;28;20025;-80
2023/09/19 07:09:00;;;;;;;0.00;0.00;;;;;;;;;;5041564;28;20044;-82
2023/09/19 07:11:31;;;;;;;0.00;0.00;;;;;;;;;;5042126;28;20047;-88
2023/09/19 07:14:01;;;;;;;0.00;0.00;;;;;;;;;;5023365;28;20164;-86
2023/09/19 07:17:04;;;;;;;0.00;0.00;;;;;;;;;;5028922;28;20131;-90
2023/09/19 07:19:31;;;;;;;0.00;0.00;;;;;;;;;;5057592;28;20278;-86
2023/09/19 07:22:27;;;;;;;0.00;0.00;;;;;;;;;;5002615;28;20043;-87
2023/09/19 07:24:53;;;;;;;0.00;0.00;;;;;;;;;;5026627;28;20036;-86
2023/09/19 07:27:38;;;;;;;0.00;0.00;;;;;;;;;;5029574;28;20053;-88
2023/09/19 07:33:32;;;;;;;0.00;0.00;;;;;;;;;;5008973;28;20047;-88
2023/09/19 07:36:01;;;;;;;0.00;0.00;;;;;;;;;;5006953;28;20440;-90
2023/09/19 07:38:32;;;;;;;0.00;0.00;;;;;;;;;;5019842;28;20029;-87
2023/09/19 07:41:02;;;;;;;0.00;0.00;;;;;;;;;;5032382;28;20137;-90
2023/09/19 07:43:28;;;;;;;0.00;0.00;;;;;;;;;;5018828;28;20423;-90
2023/09/19 07:45:53;;;;;;;0.00;0.00;;;;;;;;;;5018619;28;20057;-89
2023/09/19 07:49:40;;;;;;;;;;;;;;;;;;;;;
2023/09/19 07:51:27;;;;;;;0.00;0.00;;;;;;;;;;5086581;22;20088;-90
2023/09/19 07:53:52;;;;;;;0.00;0.00;;;;;;;;;;5020385;28;20034;-88
2023/09/19 07:56:22;;;;;;;0.00;0.00;;;;;;;;;;5034974;28;20029;-87
2023/09/19 07:59:41;;;;;;;0.00;0.00;;;;;;;;;;4990003;28;20119;-90
2023/09/19 08:02:22;;;;;;;0.00;0.00;;;;;;;;;;4977873;28;20041;-88
2023/09/19 08:10:03;;;;;;;0.00;0.00;;;;;;;;;;1496930;26;20078;-90
2023/09/19 08:12:30;;;;;;;0.00;0.00;;;;;;;;;;5018498;28;20033;-90
2023/09/19 08:15:15;;;;;;;0.00;0.00;;;;;;;;;;5039308;28;20032;-90
2023/09/19 08:17:41;;;;;;;0.00;0.00;;;;;;;;;;5051614;28;20028;-87
2023/09/19 08:20:15;;;;;;;0.00;0.00;;;;;;;;;;5052732;28;20506;-84
2023/09/19 08:22:55;;;;;;;0.00;0.00;;;;;;;;;;5044064;28;20032;-85
2023/09/19 08:25:28;;;;;;;0.00;0.00;;;;;;;;;;5040385;28;20036;-88
2023/09/19 08:28:01;;;;;;;0.00;0.00;;;;;;;;;;5038327;28;20024;-87
2023/09/19 08:30:27;;;;;;;0.00;0.00;;;;;;;;;;5043264;28;20036;-86
2023/09/19 08:33:23;;;;;;;0.00;0.00;;;;;;;;;;5066191;28;20017;-82
2023/09/19 08:35:58;;;;;;;0.00;0.00;;;;;;;;;;5053811;28;20056;-81
2023/09/19 08:42:05;;;;;;;0.00;0.00;;;;;;;;;;5072650;28;20131;-84
2023/09/19 08:44:47;;;;;;;0.00;0.00;;;;;;;;;;5026747;28;20055;-87
2023/09/19 08:47:18;;;;;;;0.00;0.00;;;;;;;;;;5043193;28;20033;-85
2023/09/19 08:50:28;;;;;;;0.00;0.00;;;;;;;;;;5016509;28;20096;-85
2023/09/19 08:57:33;;;;;;;0.00;0.00;;;;;;;;;;5013936;28;20052;-87
2023/09/19 09:00:14;;;;;;;0.00;0.00;;;;;;;;;;5016491;28;20037;-87
2023/09/19 09:12:43;;;;;;;0.00;0.00;;;;;;;;;;5000695;22;20048;-86
2023/09/19 09:21:04;;;;;;;0.00;0.00;;;;;;;;;;5143638;22;20166;-82
2023/09/19 09:30:14;;;;;;;0.00;0.00;;;;;;;;;;5491644;23;20050;-84
2023/09/19 10:34:51;;;;;;;0.00;0.00;;;;;;;;;;5467575;23;20057;-88
2023/09/19 10:40:59;;;;;;;0.00;0.00;;;;;;;;;;5008526;23;20068;-90
2023/09/19 10:44:05;;;;;;;0.00;0.00;;;;;;;;;;4947850;28;20047;-88
2023/09/19 10:46:25;;;;;;;0.00;0.00;;;;;;;;;;4984802;28;20108;-85
2023/09/19 10:48:54;;;;;;;0.00;0.00;;;;;;;;;;4984811;28;20472;-87
2023/09/19 10:51:24;;;;;;;0.00;0.00;;;;;;;;;;4962374;28;20098;-86
2023/09/19 10:54:01;;;;;;;0.00;0.00;;;;;;;;;;4970537;28;20030;-87
2023/09/19 10:56:36;;;;;;;0.00;0.00;;;;;;;;;;5001395;28;20037;-89
2023/09/19 11:02:19;;;;;;;0.00;0.00;;;;;;;;;;5008499;23;20066;-87
2023/09/19 11:05:19;;;;;;;0.00;0.00;;;;;;;;;;4996539;28;20095;-88
2023/09/19 11:08:12;;;;;;;;;;;;;;;;;;5028018;28;20039;-85
2023/09/19 11:10:54;;;;;;;0.00;0.00;;;;;;;;;;5002744;28;19914;-85
2023/09/19 11:13:31;;;;;;;0.00;0.00;;;;;;;;;;5020824;28;20025;-87
2023/09/19 11:16:35;;;;;;;0.00;0.00;;;;;;;;;;4947286;29;20406;-88
2023/09/19 11:19:07;;;;;;;0.00;0.00;;;;;;;;;;4868007;29;20043;-85
2023/09/19 11:21:35;;;;;;;0.00;0.00;;;;;;;;;;4919609;29;20044;-86
2023/09/19 11:24:32;;;;;;;0.00;0.00;;;;;;;;;;4941629;29;20035;-87
2023/09/19 11:27:34;;;;;;;0.00;0.00;;;;;;;;;;4947600;29;20048;-88
2023/09/19 11:47:03;;;;;;;0.00;0.00;;;;;;;;;;4943588;29;20099;-87
2023/09/19 11:52:39;;;;;;;0.00;0.00;;;;;;;;;;3326555;26;20054;-79
2023/09/19 11:55:05;;;;;;;0.00;0.00;;;;;;;;;;4970881;28;20376;-83
2023/09/19 11:57:30;;;;;;;0.00;0.00;;;;;;;;;;4973433;28;20029;-81
2023/09/19 11:59:58;;;;;;;0.00;0.00;;;;;;;;;;4956442;28;20042;-80
2023/09/19 12:02:40;;;;;;;0.00;0.00;;;;;;;;;;4990679;28;20034;-79
2023/09/19 12:05:06;;;;;;;0.00;0.00;;;;;;;;;;4990795;28;20037;-80
2023/09/19 12:07:32;;;;;;;0.00;0.00;;;;;;;;;;4974067;28;20038;-80
2023/09/19 12:10:05;;;;;;;0.00;0.00;;;;;;;;;;4958792;28;20037;-80
2023/09/19 12:12:32;;;;;;;0.00;0.00;;;;;;;;;;4992459;28;20387;-80
2023/09/19 12:14:58;;;;;;;0.00;0.00;;;;;;;;;;5002362;28;20030;-77
2023/09/19 12:17:24;;;;;;;0.00;0.00;;;;;;;;;;4995943;28;20041;-79
2023/09/19 12:19:51;;;;;;;0.00;0.00;;;;;;;;;;4991322;28;20071;-79
2023/09/19 12:22:17;;;;;;;0.00;0.00;;;;;;;;;;4993968;28;20044;-79
2023/09/19 12:24:44;;;;;;;0.00;0.00;;;;;;;;;;4993277;28;20030;-79
2023/09/19 12:27:11;;;;;;;0.00;0.00;;;;;;;;;;4993581;28;20038;-79
2023/09/19 12:29:50;;;;;;;0.00;0.00;;;;;;;;;;4995094;28;20192;-80
2023/09/19 12:32:22;;;;;;;0.00;0.00;;;;;;;;;;4995494;28;20080;-79
2023/09/19 12:34:52;;;;;;;0.10;0.00;;;;;;;;;;4994455;28;20038;-78
2023/09/19 12:37:21;;;;;;;0.00;0.00;;;;;;;;;;4994641;28;20076;-79
2023/09/19 12:39:49;;;;;;;0.00;0.00;;;;;;;;;;4999493;28;20395;-77
2023/09/19 12:42:15;;;;;;;0.00;0.00;;;;;;;;;;4993788;28;20387;-80
2023/09/19 12:44:44;;;;;;;0.00;0.00;;;;;;;;;;4994464;28;20109;-78
2023/09/19 12:47:11;;;;;;;0.00;0.00;;;;;;;;;;4994508;28;20026;-79
2023/09/19 12:49:36;;;;;;;0.00;0.00;;;;;;;;;;5001518;28;20141;-80
2023/09/19 12:52:02;;;;;;;0.00;0.00;;;;;;;;;;5011217;28;20034;-80
2023/09/19 12:54:40;;;;;;;0.00;0.00;;;;;;;;;;5012347;28;20022;-79
2023/09/19 12:57:05;;;;;;;0.00;0.00;;;;;;;;;;5009585;28;20007;-79
2023/09/19 12:59:32;;;;;;;0.00;0.00;;;;;;;;;;5011981;28;20037;-80
2023/09/19 13:02:07;;;;;;;0.00;0.00;;;;;;;;;;5010017;28;20038;-78
2023/09/19 13:04:40;;;;;;;0.00;0.00;;;;;;;;;;5013885;28;20082;-80
2023/09/19 13:07:07;;;;;;;0.00;0.00;;;;;;;;;;4999152;28;20031;-79
2023/09/19 13:09:38;;;;;;;0.00;0.00;;;;;;;;;;5010356;28;20041;-78
2023/09/19 13:12:06;;;;;;;0.08;0.00;;;;;;;;;;5001590;28;20041;-80
2023/09/19 13:14:34;;;;;;;0.00;0.00;;;;;;;;;;4999340;28;20026;-80
2023/09/19 13:17:15;;;;;;;0.00;0.00;;;;;;;;;;4995716;28;20353;-80
2023/09/19 13:19:57;;;;;;;0.00;0.00;;;;;;;;;;4995028;28;20129;-80
2023/09/19 13:22:44;;;;;;;0.00;0.00;;;;;;;;;;4978990;28;20030;-80
2023/09/19 13:25:15;;;;;;;0.00;0.00;;;;;;;;;;4980147;28;20093;-81
2023/09/19 13:27:42;;;;;;;0.00;0.00;;;;;;;;;;4994314;28;20061;-83
2023/09/19 13:30:08;;;;;;;0.00;0.00;;;;;;;;;;4994493;28;20380;-83
2023/09/19 13:32:34;;;;;;;0.00;0.00;;;;;;;;;;4994393;28;20034;-80
2023/09/19 13:34:59;;;;;;;0.00;0.00;;;;;;;;;;4995270;28;20440;-80
2023/09/19 13:37:26;;;;;;;0.00;0.00;;;;;;;;;;4982441;28;20352;-82
2023/09/19 13:39:52;;;;;;;0.00;0.00;;;;;;;;;;4999732;28;20097;-79
2023/09/19 13:42:18;;;;;;;0.00;0.00;;;;;;;;;;5008491;28;20448;-80
2023/09/19 13:44:44;;;;;;;0.00;0.00;;;;;;;;;;5009333;28;20037;-80
2023/09/19 13:47:10;;;;;;;0.00;0.00;;;;;;;;;;5010218;28;20051;-79
2023/09/19 13:49:36;;;;;;;0.00;0.00;;;;;;;;;;4993336;28;20037;-78
2023/09/19 13:52:04;;;;;;;0.00;0.00;;;;;;;;;;4997358;28;20038;-78
2023/09/19 13:54:30;;;;;;;0.00;0.00;;;;;;;;;;4964684;28;20109;-80
2023/09/19 13:56:55;;;;;;;0.00;0.00;;;;;;;;;;4997773;28;20150;-79
2023/09/19 13:59:23;;;;;;;0.00;0.00;;;;;;;;;;4997836;28;20036;-80
2023/09/19 14:01:53;;;;;;;0.00;0.00;;;;;;;;;;4997770;28;20483;-83
2023/09/19 14:04:20;;;;;;;0.00;0.00;;;;;;;;;;4997520;28;20026;-79
2023/09/19 14:06:46;;;;;;;0.00;0.00;;;;;;;;;;4964069;28;20030;-81
2023/09/19 14:09:13;;;;;;;0.00;0.00;;;;;;;;;;4991391;28;20038;-81
2023/09/19 14:11:39;;;;;;;0.00;0.00;;;;;;;;;;4981169;28;20352;-82
2023/09/19 14:14:04;;;;;;;0.00;0.00;;;;;;;;;;4964142;28;20022;-84
2023/09/19 14:16:30;;;;;;;0.00;0.00;;;;;;;;;;4998152;28;20035;-82
2023/09/19 14:18:56;;;;;;;0.00;0.00;;;;;;;;;;4997539;28;20050;-80
2023/09/19 14:21:22;;;;;;;0.00;0.00;;;;;;;;;;4997294;28;20120;-80
2023/09/19 14:23:49;;;;;;;0.00;0.00;;;;;;;;;;4997347;28;20048;-80
2023/09/19 14:26:16;;;;;;;0.00;0.00;;;;;;;;;;4997437;28;20038;-79
2023/09/19 14:28:41;;;;;;;0.00;0.00;;;;;;;;;;4997308;28;20121;-78
2023/09/19 14:31:10;;;;;;;0.00;0.00;;;;;;;;;;5003535;28;20034;-77
2023/09/19 14:33:36;;;;;;;0.00;0.00;;;;;;;;;;4999179;28;20038;-84
2023/09/19 14:36:09;;;;;;;0.00;0.00;;;;;;;;;;4964029;28;20089;-84
2023/09/19 14:38:35;;;;;;;0.00;0.00;;;;;;;;;;4979732;28;20085;-84
2023/09/19 14:41:04;;;;;;;0.00;0.00;;;;;;;;;;4979570;28;20038;-84
2023/09/19 14:43:34;;;;;;;0.00;0.00;;;;;;;;;;4997019;28;20524;-83
2023/09/19 14:46:10;;;;;;;0.00;0.00;;;;;;;;;;4979851;28;20464;-83
2023/09/19 14:48:36;;;;;;;0.00;0.00;;;;;;;;;;4979660;28;20383;-83
2023/09/19 14:51:05;;;;;;;0.00;0.00;;;;;;;;;;4996602;28;20129;-84
2023/09/19 14:53:33;;;;;;;0.00;0.00;;;;;;;;;;4976999;28;20057;-84
2023/09/19 14:56:04;;;;;;;0.00;0.00;;;;;;;;;;5001516;28;20289;-84
2023/09/19 14:58:31;;;;;;;0.00;0.00;;;;;;;;;;4996986;28;20034;-85
2023/09/19 15:01:06;;;;;;;0.00;0.00;;;;;;;;;;4979327;28;20031;-84
2023/09/19 15:03:39;;;;;;;0.00;0.00;;;;;;;;;;4997340;28;20026;-84
2023/09/19 15:06:20;;;;;;;0.00;0.00;;;;;;;;;;4980069;28;20033;-84
2023/09/19 15:08:47;;;;;;;0.00;0.00;;;;;;;;;;4997175;28;20507;-84
2023/09/19 15:11:16;;;;;;;0.00;0.00;;;;;;;;;;4998312;28;20125;-84
2023/09/19 15:13:42;;;;;;;0.00;0.00;;;;;;;;;;4997545;28;20072;-84
2023/09/19 15:16:11;;;;;;;0.00;0.00;;;;;;;;;;4989056;28;20034;-81
2023/09/19 15:18:37;;;;;;;0.00;0.00;;;;;;;;;;4981191;28;20026;-84
2023/09/19 15:21:07;;;;;;;0.00;0.00;;;;;;;;;;4979070;28;20427;-83
2023/09/19 15:23:34;;;;;;;0.00;0.00;;;;;;;;;;4962989;28;20022;-85
2023/09/19 15:26:17;;;;;;;0.00;0.00;;;;;;;;;;4996663;28;20038;-84
2023/09/19 15:28:42;;;;;;;0.00;0.00;;;;;;;;;;4978828;28;20030;-83
2023/09/19 15:31:10;;;;;;;0.00;0.00;;;;;;;;;;4979089;28;20041;-83
2023/09/19 15:33:38;;;;;;;0.00;0.00;;;;;;;;;;4996064;28;20065;-83
2023/09/19 15:36:05;;;;;;;0.00;0.00;;;;;;;;;;4962549;28;20022;-84
2023/09/19 15:38:31;;;;;;;0.00;0.00;;;;;;;;;;4994143;28;20019;-84
2023/09/19 15:40:57;;;;;;;0.00;0.00;;;;;;;;;;4998281;28;20054;-83
2023/09/19 15:43:23;;;;;;;0.00;0.00;;;;;;;;;;4996287;28;20092;-84
2023/09/19 15:45:49;;;;;;;0.00;0.00;;;;;;;;;;4995688;28;20026;-85
2023/09/19 15:48:15;;;;;;;0.00;0.00;;;;;;;;;;4961990;28;20375;-82
2023/09/19 15:50:44;;;;;;;0.00;0.00;;;;;;;;;;4995823;28;20041;-85
2023/09/19 15:53:09;;;;;;;0.00;0.00;;;;;;;;;;4960948;28;20100;-83
2023/09/19 15:55:39;;;;;;;0.00;0.00;;;;;;;;;;4976166;28;20038;-83
2023/09/19 15:58:06;;;;;;;0.00;0.00;;;;;;;;;;4942227;28;20039;-83
2023/09/19 16:00:34;;;;;;;0.00;0.00;;;;;;;;;;4970552;28;20060;-84
2023/09/19 16:03:00;;;;;;;0.00;0.00;;;;;;;;;;4948614;28;20404;-83
2023/09/19 16:05:26;;;;;;;0.00;0.00;;;;;;;;;;4976231;28;20471;-83
2023/09/19 16:07:52;;;;;;;0.00;0.00;;;;;;;;;;4976520;28;20035;-82
2023/09/19 16:10:18;;;;;;;0.00;0.00;;;;;;;;;;4943942;28;20030;-84
2023/09/19 16:12:43;;;;;;;0.00;0.00;;;;;;;;;;4942991;28;20038;-85
2023/09/19 16:15:11;;;;;;;0.00;0.00;;;;;;;;;;4959040;28;20026;-82
2023/09/19 16:17:37;;;;;;;0.00;0.00;;;;;;;;;;4975728;28;20097;-82
2023/09/19 16:20:03;;;;;;;0.00;0.00;;;;;;;;;;4975632;28;20117;-82
2023/09/19 16:22:28;;;;;;;0.00;0.00;;;;;;;;;;4966071;28;20038;-85
2023/09/19 16:24:54;;;;;;;0.00;0.00;;;;;;;;;;4968707;28;20035;-83
2023/09/19 16:27:21;;;;;;;0.00;0.00;;;;;;;;;;4976291;28;20030;-85
2023/09/19 16:29:48;;;;;;;0.00;0.00;;;;;;;;;;4943219;28;20459;-84
2023/09/19 16:32:15;;;;;;;0.00;0.00;;;;;;;;;;4958509;28;20027;-84
2023/09/19 16:34:41;;;;;;;0.00;0.00;;;;;;;;;;4958509;28;20461;-85
2023/09/19 16:37:06;;;;;;;0.00;0.00;;;;;;;;;;4942982;28;20121;-84
2023/09/19 16:39:32;;;;;;;0.00;0.00;;;;;;;;;;4958280;28;20038;-85
2023/09/19 16:41:57;;;;;;;0.00;0.00;;;;;;;;;;4958400;28;20065;-84
2023/09/19 16:44:23;;;;;;;0.00;0.00;;;;;;;;;;4961545;28;20062;-85
2023/09/19 16:46:48;;;;;;;0.00;0.00;;;;;;;;;;4972029;28;20049;-85
2023/09/19 16:49:14;;;;;;;0.00;0.00;;;;;;;;;;4958717;28;20117;-85
2023/09/19 16:51:41;;;;;;;0.00;0.00;;;;;;;;;;4981123;28;20108;-84
2023/09/19 16:54:06;;;;;;;0.00;0.00;;;;;;;;;;4977934;28;20030;-85
2023/09/19 16:56:36;;;;;;;0.00;0.00;;;;;;;;;;4961858;28;20441;-84
2023/09/19 16:59:04;;;;;;;0.00;0.00;;;;;;;;;;4977799;28;20022;-85
2023/09/19 17:01:32;;;;;;;0.00;0.00;;;;;;;;;;4961564;28;20045;-84
2023/09/19 17:03:58;;;;;;;0.00;0.00;;;;;;;;;;4994730;28;20030;-84
2023/09/19 17:06:24;;;;;;;0.00;0.00;;;;;;;;;;4995254;28;20042;-84
2023/09/19 17:08:50;;;;;;;0.00;0.00;;;;;;;;;;4995422;28;20061;-84
2023/09/19 17:11:16;;;;;;;0.00;0.00;;;;;;;;;;4983218;28;20034;-84
2023/09/19 17:13:42;;;;;;;0.00;0.00;;;;;;;;;;4965376;28;20081;-84